createdAt,value
2019-04-01T00:02:21.036Z,1.40
2019-04-01T00:07:24.447Z,1.40
2019-04-01T00:12:27.861Z,1.10
2019-04-01T00:17:31.286Z,1.20
2019-04-01T00:22:34.705Z,2.43
2019-04-01T00:27:38.115Z,1.53
2019-04-01T00:32:41.632Z,1.83
2019-04-01T00:37:45.050Z,1.80
2019-04-01T00:48:04.980Z,1.33
2019-04-01T00:53:08.409Z,1.40
2019-04-01T00:58:11.816Z,1.77
2019-04-01T01:03:15.223Z,1.77
2019-04-01T01:08:18.634Z,1.63
2019-04-01T01:13:22.056Z,1.30
2019-04-01T01:18:25.482Z,1.60
2019-04-01T01:23:28.898Z,2.27
2019-04-01T01:28:32.383Z,1.37
2019-04-01T01:33:35.779Z,1.93
2019-04-01T01:38:39.297Z,1.30
2019-04-01T01:43:42.684Z,2.00
2019-04-01T01:48:46.109Z,2.60
2019-04-01T01:53:49.527Z,1.10
2019-04-01T01:58:52.945Z,1.00
2019-04-01T02:03:56.393Z,2.10
2019-04-01T02:08:59.805Z,1.43
2019-04-01T02:14:03.217Z,1.20
2019-04-01T02:19:06.637Z,1.73
2019-04-01T02:24:10.072Z,1.53
2019-04-01T02:29:13.473Z,1.97
2019-04-01T02:34:16.896Z,1.00
2019-04-01T02:39:20.299Z,0.93
2019-04-01T02:44:23.845Z,1.40
2019-04-01T02:49:27.275Z,2.07
2019-04-01T02:54:30.701Z,1.30
2019-04-01T02:59:34.121Z,1.20
2019-04-01T03:04:37.545Z,1.73
2019-04-01T03:09:40.955Z,1.73
2019-04-01T03:14:44.366Z,1.73
2019-04-01T03:19:47.800Z,1.60
2019-04-01T03:24:51.200Z,2.17
2019-04-01T03:29:54.610Z,1.57
2019-04-01T03:34:58.034Z,1.17
2019-04-01T03:40:01.520Z,1.90
2019-04-01T03:45:06.446Z,1.23
2019-04-01T03:50:10.093Z,1.73
2019-04-01T03:55:13.514Z,1.63
2019-04-01T04:00:17.064Z,1.53
2019-04-01T04:05:20.942Z,1.53
2019-04-01T04:10:24.360Z,2.40
2019-04-01T04:15:27.824Z,1.83
2019-04-01T04:20:31.255Z,1.63
2019-04-01T04:25:34.776Z,2.60
2019-04-01T04:30:38.201Z,2.13
2019-04-01T04:35:41.624Z,1.97
2019-04-01T04:40:45.035Z,1.80
2019-04-01T04:45:48.442Z,2.47
2019-04-01T04:50:51.874Z,1.83
2019-04-01T04:55:55.311Z,1.90
2019-04-01T05:00:58.707Z,1.90
2019-04-01T05:06:02.118Z,1.90
2019-04-01T05:11:05.533Z,1.63
2019-04-01T05:16:08.947Z,2.40
2019-04-01T05:21:15.509Z,1.87
2019-04-01T05:26:21.137Z,1.90
2019-04-01T05:31:27.517Z,2.07
2019-04-01T05:36:31.673Z,1.97
2019-04-01T05:41:35.825Z,2.20
2019-04-01T05:46:39.325Z,3.00
2019-04-01T05:51:42.869Z,7.77
2019-04-01T05:56:46.478Z,14.10
2019-04-01T06:01:50.672Z,9.90
2019-04-01T06:06:54.091Z,5.77
2019-04-01T06:11:57.988Z,5.07
2019-04-01T06:17:01.486Z,4.20
2019-04-01T06:22:04.968Z,4.43
2019-04-01T06:27:08.452Z,2.80
2019-04-01T06:32:11.885Z,3.03
2019-04-01T06:37:15.387Z,3.23
2019-04-01T06:42:19.383Z,3.03
2019-04-01T06:47:23.144Z,3.73
2019-04-01T06:52:26.528Z,2.80
2019-04-01T06:57:29.998Z,2.17
2019-04-01T07:02:33.448Z,1.60
2019-04-01T07:07:36.866Z,2.03
2019-04-01T07:12:40.298Z,2.43
2019-04-01T07:17:43.703Z,2.10
2019-04-01T07:22:47.283Z,2.00
2019-04-01T07:27:50.869Z,2.27
2019-04-01T07:32:54.290Z,2.03
2019-04-01T07:37:57.854Z,2.77
2019-04-01T07:43:01.343Z,2.53
2019-04-01T07:48:05.215Z,2.47
2019-04-01T07:53:08.635Z,2.80
2019-04-01T07:58:12.069Z,3.07
2019-04-01T08:03:15.477Z,2.97
2019-04-01T08:08:19.059Z,2.37
2019-04-01T08:13:22.478Z,2.13
2019-04-01T08:18:25.958Z,2.20
2019-04-01T08:23:29.882Z,2.50
2019-04-01T08:28:33.297Z,2.90
2019-04-01T08:33:36.738Z,2.67
2019-04-01T08:38:40.153Z,2.30
2019-04-01T08:43:43.574Z,2.90
2019-04-01T08:48:46.996Z,2.37
2019-04-01T08:53:50.405Z,1.87
2019-04-01T08:58:53.812Z,1.90
2019-04-01T09:03:57.225Z,2.70
2019-04-01T09:09:03.863Z,2.30
2019-04-01T09:14:07.287Z,2.13
2019-04-01T09:19:10.732Z,2.67
2019-04-01T09:24:14.147Z,2.77
2019-04-01T09:29:17.576Z,3.23
2019-04-01T09:34:21.015Z,2.50
2019-04-01T09:39:24.471Z,2.87
2019-04-01T09:44:36.504Z,1.90
2019-04-01T09:49:33.045Z,2.40
2019-04-01T09:54:36.467Z,2.37
2019-04-01T09:59:39.888Z,2.70
2019-04-01T10:04:43.318Z,2.63
2019-04-01T10:09:46.730Z,3.07
2019-04-01T10:14:50.184Z,2.03
2019-04-01T10:19:53.587Z,1.90
2019-04-01T10:24:57.028Z,2.43
2019-04-01T10:30:00.505Z,2.43
2019-04-01T10:35:05.726Z,2.93
2019-04-01T10:40:09.489Z,2.53
2019-04-01T10:45:15.373Z,2.17
2019-04-01T10:50:19.086Z,3.07
2019-04-01T10:55:22.483Z,2.73
2019-04-01T11:00:26.620Z,2.80
2019-04-01T11:05:30.122Z,3.17
2019-04-01T11:10:33.769Z,3.10
2019-04-01T11:15:37.723Z,2.50
2019-04-01T11:20:41.174Z,2.43
2019-04-01T11:25:44.596Z,2.63
2019-04-01T11:30:48.038Z,3.10
2019-04-01T11:35:52.205Z,3.87
2019-04-01T11:40:55.622Z,2.93
2019-04-01T11:45:59.036Z,2.37
2019-04-01T11:51:02.517Z,2.70
2019-04-01T11:56:05.901Z,3.20
2019-04-01T12:01:09.328Z,3.20
2019-04-01T12:06:12.807Z,3.40
2019-04-01T12:11:16.252Z,2.17
2019-04-01T12:16:19.677Z,3.30
2019-04-01T12:21:23.099Z,3.67
2019-04-01T12:26:26.530Z,2.77
2019-04-01T12:31:30.035Z,4.43
2019-04-01T12:36:33.448Z,2.47
2019-04-01T12:41:36.927Z,3.13
2019-04-01T12:46:40.351Z,3.23
2019-04-01T12:51:43.865Z,2.90
2019-04-01T12:56:47.273Z,3.53
2019-04-01T13:01:50.792Z,3.27
2019-04-01T13:06:54.241Z,2.87
2019-04-01T13:11:57.662Z,2.93
2019-04-01T13:17:01.092Z,2.87
2019-04-01T13:22:04.497Z,3.13
2019-04-01T13:27:09.379Z,3.73
2019-04-01T13:32:13.017Z,3.00
2019-04-01T13:37:16.443Z,2.50
2019-04-01T13:42:19.865Z,3.00
2019-04-01T13:47:23.309Z,2.83
2019-04-01T13:52:26.714Z,2.77
2019-04-01T13:57:30.200Z,3.07
2019-04-01T14:02:33.634Z,3.37
2019-04-01T14:07:37.040Z,3.07
2019-04-01T14:12:40.492Z,2.70
2019-04-01T14:17:43.923Z,3.53
2019-04-01T14:22:48.311Z,3.00
2019-04-01T14:27:52.441Z,2.83
2019-04-01T14:32:55.865Z,2.37
2019-04-01T14:37:59.278Z,2.80
2019-04-01T14:43:02.707Z,2.73
2019-04-01T14:48:08.330Z,2.67
2019-04-01T14:53:11.282Z,3.80
2019-04-01T14:58:14.722Z,3.80
2019-04-01T15:03:18.390Z,3.37
2019-04-01T15:08:21.885Z,3.03
2019-04-01T15:13:26.033Z,4.17
2019-04-01T15:18:29.457Z,3.73
2019-04-01T15:23:32.888Z,3.87
2019-04-01T15:28:36.298Z,3.57
2019-04-01T15:33:39.750Z,3.33
2019-04-01T15:38:43.177Z,3.93
2019-04-01T15:43:46.592Z,3.77
2019-04-01T15:48:50.044Z,3.67
2019-04-01T15:53:53.475Z,3.07
2019-04-01T15:58:56.917Z,4.00
2019-04-01T16:04:00.330Z,3.00
2019-04-01T16:09:06.246Z,3.13
2019-04-01T16:14:11.189Z,3.10
2019-04-01T16:19:14.792Z,2.77
2019-04-01T16:24:18.213Z,3.80
2019-04-01T16:29:21.655Z,2.97
2019-04-01T16:34:25.080Z,3.43
2019-04-01T16:39:28.497Z,3.50
2019-04-01T16:44:31.935Z,3.83
2019-04-01T16:49:36.625Z,2.83
2019-04-01T16:54:40.066Z,3.27
2019-04-01T16:59:43.490Z,3.20
2019-04-01T17:04:48.224Z,3.17
2019-04-01T17:09:51.844Z,3.43
2019-04-01T17:14:55.332Z,3.57
2019-04-01T17:19:58.741Z,3.53
2019-04-01T17:25:02.158Z,4.30
2019-04-01T17:30:10.900Z,3.53
2019-04-01T17:35:14.545Z,3.47
2019-04-01T17:40:18.264Z,2.90
2019-04-01T17:45:24.826Z,3.80
2019-04-01T17:50:29.138Z,3.60
2019-04-01T17:55:32.837Z,3.93
2019-04-01T18:00:38.302Z,4.70
2019-04-01T18:05:41.667Z,4.67
2019-04-01T18:10:48.514Z,4.70
2019-04-01T18:15:50.225Z,4.17
2019-04-01T18:20:53.649Z,5.00
2019-04-01T18:25:57.061Z,4.53
2019-04-01T18:31:00.487Z,3.77
2019-04-01T18:36:03.982Z,5.10
2019-04-01T18:41:07.456Z,5.93
2019-04-01T18:46:10.882Z,4.07
2019-04-01T18:51:14.327Z,4.27
2019-04-01T18:56:17.754Z,5.33
2019-04-01T19:01:21.194Z,4.83
2019-04-01T19:06:25.753Z,4.90
2019-04-01T19:11:31.169Z,3.80
2019-04-01T19:16:34.955Z,4.23
2019-04-01T19:21:38.707Z,4.40
2019-04-01T19:26:46.839Z,6.30
2019-04-01T19:31:51.451Z,4.07
2019-04-01T19:36:54.838Z,5.20
2019-04-01T19:42:00.547Z,4.07
2019-04-01T19:47:04.131Z,4.90
2019-04-01T19:52:09.804Z,4.43
2019-04-01T19:57:13.354Z,4.10
2019-04-01T20:02:17.205Z,4.77
2019-04-01T20:07:21.614Z,4.37
2019-04-01T20:12:27.058Z,4.97
2019-04-01T20:17:30.483Z,4.03
2019-04-01T20:22:33.934Z,3.97
2019-04-01T20:27:37.376Z,5.00
2019-04-01T20:32:40.798Z,5.27
2019-04-01T20:37:44.331Z,4.70
2019-04-01T20:42:48.785Z,4.80
2019-04-01T20:47:52.206Z,5.07
2019-04-01T20:52:55.703Z,8.60
2019-04-01T20:57:59.210Z,6.20
2019-04-01T21:03:02.979Z,5.77
2019-04-01T21:08:06.437Z,5.80
2019-04-01T21:13:10.484Z,5.33
2019-04-01T21:18:14.525Z,5.00
2019-04-01T21:23:19.130Z,6.23
2019-04-01T21:28:24.952Z,5.70
2019-04-01T21:33:28.430Z,5.93
2019-04-01T21:38:32.970Z,5.87
2019-04-01T21:43:36.467Z,5.50
2019-04-01T21:48:39.888Z,5.43
2019-04-01T21:53:43.319Z,5.60
2019-04-01T21:58:46.814Z,6.53
2019-04-01T22:03:50.299Z,6.30
2019-04-01T22:08:53.733Z,6.67
2019-04-01T22:13:57.161Z,5.23
2019-04-01T22:19:00.592Z,5.83
2019-04-01T22:24:04.576Z,6.17
2019-04-01T22:29:08.198Z,6.53
2019-04-01T22:34:11.643Z,6.97
2019-04-01T22:39:26.304Z,6.37
2019-04-01T22:44:20.241Z,6.37
2019-04-01T22:49:23.730Z,6.33
2019-04-01T22:54:27.157Z,7.03
2019-04-01T22:59:30.578Z,6.80
2019-04-01T23:04:36.788Z,6.03
2019-04-01T23:09:39.555Z,5.73
2019-04-01T23:14:42.980Z,5.37
2019-04-01T23:19:46.484Z,7.07
2019-04-01T23:24:49.906Z,6.37
2019-04-01T23:29:53.338Z,6.07
2019-04-01T23:34:56.747Z,6.57
2019-04-01T23:40:00.164Z,6.63
2019-04-01T23:45:04.636Z,6.87
2019-04-01T23:50:09.381Z,6.90
2019-04-01T23:55:13.527Z,5.67
